Time;durP1;ratioP1;P1;durP2;ratioP2;P2;SDS_P1;SDS_P2;PMS_P1;PMS_P2;Temp;Humidity;BMP_temperature;BMP_pressure;BME280_temperature;BME280_humidity;BME280_pressure;Samples;Min_cycle;Max_cycle;Signal;HPM_P1;HPM_P2
2023/10/04 00:00:16;;;;;;;17.30;15.50;;;;;;;;;;5105622;28;20032;-43
2023/10/04 00:02:44;;;;;;;13.48;11.20;;;;;;;;;;5103153;28;20028;-46
2023/10/04 00:05:14;;;;;;;11.18;9.25;;;;;;;;;;5102802;28;20051;-43
2023/10/04 00:07:41;;;;;;;24.27;21.75;;;;;;;;;;5102577;28;20020;-46
2023/10/04 00:10:11;;;;;;;20.52;18.52;;;;;;;;;;5102804;28;20020;-44
2023/10/04 00:12:38;;;;;;;14.35;11.05;;;;;;;;;;5103561;28;20304;-46
2023/10/04 00:15:15;;;;;;;9.38;8.40;;;;;;;;;;5103406;28;20020;-40
2023/10/04 00:17:45;;;;;;;8.07;7.20;;;;;;;;;;5103625;28;20024;-43
2023/10/04 00:20:13;;;;;;;7.80;6.80;;;;;;;;;;5104552;28;20032;-42
2023/10/04 00:22:40;;;;;;;10.43;9.43;;;;;;;;;;5105097;28;20354;-45
2023/10/04 00:25:20;;;;;;;8.60;7.70;;;;;;;;;;5105043;28;20047;-41
2023/10/04 00:27:48;;;;;;;11.75;8.85;;;;;;;;;;5104257;28;20320;-45
2023/10/04 00:30:18;;;;;;;8.63;7.82;;;;;;;;;;5105160;28;20064;-41
2023/10/04 00:32:46;;;;;;;6.63;6.03;;;;;;;;;;5104994;28;20065;-43
2023/10/04 00:35:19;;;;;;;6.75;5.72;;;;;;;;;;5105149;28;20027;-40
2023/10/04 00:37:56;;;;;;;6.97;6.22;;;;;;;;;;5104955;28;20031;-40
2023/10/04 00:40:28;;;;;;;8.07;5.88;;;;;;;;;;5103348;28;20035;-47
2023/10/04 00:42:55;;;;;;;6.80;5.65;;;;;;;;;;5104675;28;20055;-45
2023/10/04 00:45:22;;;;;;;7.18;5.82;;;;;;;;;;5104555;28;20050;-41
2023/10/04 00:47:52;;;;;;;6.30;5.13;;;;;;;;;;5104604;28;20086;-41
2023/10/04 00:50:23;;;;;;;7.32;4.65;;;;;;;;;;5104619;28;20031;-42
2023/10/04 00:52:52;;;;;;;5.32;4.82;;;;;;;;;;5104559;28;20027;-43
2023/10/04 00:55:22;;;;;;;9.30;4.70;;;;;;;;;;5104480;28;20324;-43
2023/10/04 00:57:54;;;;;;;7.72;4.75;;;;;;;;;;5104864;28;20061;-43
2023/10/04 01:00:21;;;;;;;5.65;4.65;;;;;;;;;;5101861;28;20032;-45
2023/10/04 01:02:48;;;;;;;10.43;4.95;;;;;;;;;;5090058;28;20114;-34
2023/10/04 01:05:18;;;;;;;7.57;5.88;;;;;;;;;;5096377;28;20089;-42
2023/10/04 01:07:45;;;;;;;7.57;6.88;;;;;;;;;;5087789;28;20153;-45
2023/10/04 01:10:16;;;;;;;11.65;10.55;;;;;;;;;;5085997;28;20061;-34
2023/10/04 01:12:47;;;;;;;8.45;7.45;;;;;;;;;;5095617;28;20094;-43
2023/10/04 01:17:53;;;;;;;8.18;5.55;;;;;;;;;;5091182;28;20083;-42
2023/10/04 01:20:23;;;;;;;5.90;5.10;;;;;;;;;;5091821;28;20308;-39
2023/10/04 01:22:50;;;;;;;15.95;14.45;;;;;;;;;;5089653;28;20024;-40
2023/10/04 01:25:19;;;;;;;18.13;11.85;;;;;;;;;;5092266;28;20024;-44
2023/10/04 01:27:47;;;;;;;9.15;7.70;;;;;;;;;;5092776;28;20032;-42
2023/10/04 01:30:14;;;;;;;9.10;7.55;;;;;;;;;;5095110;28;20016;-52
2023/10/04 01:32:41;;;;;;;7.28;5.90;;;;;;;;;;5093181;28;20020;-52
2023/10/04 01:35:14;;;;;;;6.13;5.40;;;;;;;;;;5100665;28;20036;-44
2023/10/04 01:37:43;;;;;;;8.95;5.28;;;;;;;;;;5097490;28;20028;-42
2023/10/04 01:40:12;;;;;;;5.95;4.70;;;;;;;;;;5091863;28;20036;-48
2023/10/04 01:42:45;;;;;;;5.85;4.43;;;;;;;;;;5083308;28;20021;-42
2023/10/04 01:45:15;;;;;;;5.68;4.10;;;;;;;;;;5087854;28;20032;-40
2023/10/04 01:47:42;;;;;;;4.75;3.67;;;;;;;;;;5089780;28;20044;-42
2023/10/04 01:50:10;;;;;;;5.65;3.60;;;;;;;;;;5092286;28;20016;-45
2023/10/04 01:52:38;;;;;;;5.85;3.85;;;;;;;;;;5094299;28;20025;-49
2023/10/04 01:55:05;;;;;;;6.43;3.75;;;;;;;;;;5086548;28;20308;-47
2023/10/04 01:57:36;;;;;;;4.50;3.30;;;;;;;;;;5087334;28;20070;-42
2023/10/04 02:00:03;;;;;;;4.43;3.33;;;;;;;;;;5092303;28;20024;-50
2023/10/04 02:02:30;;;;;;;4.35;3.20;;;;;;;;;;5092512;28;20036;-42
2023/10/04 02:04:56;;;;;;;5.35;3.50;;;;;;;;;;5084664;28;20050;-46
2023/10/04 02:07:23;;;;;;;3.78;3.25;;;;;;;;;;5093365;28;20082;-44
2023/10/04 02:09:52;;;;;;;4.45;2.95;;;;;;;;;;5092144;28;20193;-45
2023/10/04 02:12:22;;;;;;;6.18;3.10;;;;;;;;;;5096376;28;20300;-45
2023/10/04 02:14:50;;;;;;;5.53;2.95;;;;;;;;;;5092615;28;20028;-44
2023/10/04 02:17:17;;;;;;;4.70;3.08;;;;;;;;;;5095059;28;20193;-41
2023/10/04 02:19:44;;;;;;;3.47;3.00;;;;;;;;;;5097547;28;20008;-44
2023/10/04 02:22:12;;;;;;;3.15;2.88;;;;;;;;;;5089904;28;20013;-46
2023/10/04 02:24:39;;;;;;;4.55;3.10;;;;;;;;;;5092074;28;20100;-47
2023/10/04 02:27:08;;;;;;;6.13;3.13;;;;;;;;;;5095639;28;20019;-46
2023/10/04 02:29:38;;;;;;;6.00;3.75;;;;;;;;;;5095130;28;20050;-43
2023/10/04 02:32:08;;;;;;;4.65;3.42;;;;;;;;;;5096339;28;20024;-43
2023/10/04 02:34:38;;;;;;;5.03;4.13;;;;;;;;;;5095388;28;20019;-46
2023/10/04 02:37:06;;;;;;;4.45;3.58;;;;;;;;;;5088064;28;20205;-39
2023/10/04 02:39:37;;;;;;;3.78;3.45;;;;;;;;;;5107613;28;20051;-39
2023/10/04 02:42:09;;;;;;;5.13;3.85;;;;;;;;;;5101021;28;20015;-55
2023/10/04 02:44:42;;;;;;;4.63;3.35;;;;;;;;;;5097182;28;20070;-40
2023/10/04 02:47:09;;;;;;;5.32;3.00;;;;;;;;;;5107056;28;20422;-43
2023/10/04 02:49:39;;;;;;;3.40;3.10;;;;;;;;;;5106778;28;20028;-48
2023/10/04 02:52:11;;;;;;;4.30;3.13;;;;;;;;;;5107037;28;20019;-42
2023/10/04 02:54:38;;;;;;;3.72;2.95;;;;;;;;;;5106622;28;20174;-40
2023/10/04 02:57:07;;;;;;;8.23;7.20;;;;;;;;;;5106754;28;20303;-48
2023/10/04 02:59:34;;;;;;;13.27;11.98;;;;;;;;;;5107346;28;20026;-40
2023/10/04 03:02:03;;;;;;;10.48;9.48;;;;;;;;;;5106834;28;20363;-39
2023/10/04 03:04:29;;;;;;;11.52;10.43;;;;;;;;;;5106800;28;20040;-50
2023/10/04 03:06:57;;;;;;;6.97;5.90;;;;;;;;;;5106782;28;20020;-40
2023/10/04 03:09:24;;;;;;;7.63;4.88;;;;;;;;;;5107135;28;20024;-40
2023/10/04 03:11:51;;;;;;;6.50;4.53;;;;;;;;;;5106476;28;20032;-38
2023/10/04 03:14:17;;;;;;;4.80;3.85;;;;;;;;;;5107016;28;20024;-43
2023/10/04 03:16:44;;;;;;;5.60;3.53;;;;;;;;;;5106570;28;20062;-42
2023/10/04 03:19:11;;;;;;;7.00;3.60;;;;;;;;;;5106812;28;20051;-48
2023/10/04 03:21:44;;;;;;;5.50;3.50;;;;;;;;;;5106073;28;20019;-42
2023/10/04 03:24:11;;;;;;;5.75;3.55;;;;;;;;;;5106369;28;20043;-48
2023/10/04 03:26:38;;;;;;;6.03;3.55;;;;;;;;;;5106156;28;20038;-46
2023/10/04 03:29:06;;;;;;;4.80;3.20;;;;;;;;;;5106702;28;20024;-39
2023/10/04 03:31:33;;;;;;;6.63;3.85;;;;;;;;;;5106259;28;20320;-45
2023/10/04 03:34:00;;;;;;;6.03;3.60;;;;;;;;;;5106378;28;20032;-51
2023/10/04 03:36:29;;;;;;;4.70;3.05;;;;;;;;;;5106236;28;20208;-42
2023/10/04 03:38:57;;;;;;;6.38;3.70;;;;;;;;;;5106496;28;20024;-39
2023/10/04 03:41:23;;;;;;;7.18;3.42;;;;;;;;;;5105879;28;20028;-51
2023/10/04 03:43:50;;;;;;;8.95;3.58;;;;;;;;;;5106338;28;20028;-43
2023/10/04 03:46:18;;;;;;;5.72;3.45;;;;;;;;;;5105864;28;20028;-40
2023/10/04 03:48:51;;;;;;;5.25;3.60;;;;;;;;;;5106104;28;20093;-40
2023/10/04 03:51:24;;;;;;;6.03;3.88;;;;;;;;;;5105953;28;20042;-39
2023/10/04 03:53:53;;;;;;;8.13;3.47;;;;;;;;;;5105473;28;20028;-40
2023/10/04 03:56:22;;;;;;;4.93;3.55;;;;;;;;;;5105844;28;20027;-39
2023/10/04 03:58:51;;;;;;;4.65;3.60;;;;;;;;;;5105910;28;20020;-41
2023/10/04 04:01:20;;;;;;;9.73;3.63;;;;;;;;;;5105526;28;20038;-41
2023/10/04 04:03:49;;;;;;;5.85;3.38;;;;;;;;;;5105571;28;20277;-40
2023/10/04 04:06:16;;;;;;;4.32;3.42;;;;;;;;;;5104120;28;20103;-43
2023/10/04 04:08:46;;;;;;;5.63;3.53;;;;;;;;;;5091565;28;20028;-45
2023/10/04 04:11:14;;;;;;;5.60;3.60;;;;;;;;;;5105368;28;20020;-47
2023/10/04 04:13:40;;;;;;;10.45;3.92;;;;;;;;;;5105694;28;20054;-48
2023/10/04 04:16:10;;;;;;;6.80;3.63;;;;;;;;;;5105215;28;20047;-44
2023/10/04 04:18:37;;;;;;;7.90;3.60;;;;;;;;;;5105601;28;20091;-48
2023/10/04 04:21:05;;;;;;;5.47;3.53;;;;;;;;;;5105314;28;20020;-44
2023/10/04 04:23:32;;;;;;;8.60;3.60;;;;;;;;;;5105134;28;20036;-44
2023/10/04 04:26:05;;;;;;;5.72;3.75;;;;;;;;;;5105229;28;20035;-44
2023/10/04 04:28:36;;;;;;;9.82;3.15;;;;;;;;;;5105294;28;20024;-49
2023/10/04 04:31:11;;;;;;;4.57;3.38;;;;;;;;;;5105015;28;20312;-42
2023/10/04 04:33:37;;;;;;;5.65;3.33;;;;;;;;;;5105172;28;20024;-41
2023/10/04 04:36:19;;;;;;;5.80;3.53;;;;;;;;;;5104872;28;20032;-41
2023/10/04 04:38:47;;;;;;;5.07;3.13;;;;;;;;;;5105284;28;20042;-45
2023/10/04 04:41:16;;;;;;;6.32;3.33;;;;;;;;;;5104714;28;20023;-42
2023/10/04 04:43:43;;;;;;;5.60;3.60;;;;;;;;;;5105188;28;20036;-40
2023/10/04 04:46:13;;;;;;;5.60;3.72;;;;;;;;;;5104772;28;20027;-42
2023/10/04 04:48:40;;;;;;;8.15;3.80;;;;;;;;;;5104608;28;20100;-39
2023/10/04 04:53:39;;;;;;;7.72;3.50;;;;;;;;;;5105056;28;20050;-39
2023/10/04 04:56:24;;;;;;;4.00;3.50;;;;;;;;;;5104474;28;20066;-41
2023/10/04 04:58:55;;;;;;;6.03;3.10;;;;;;;;;;5104994;28;20095;-39
2023/10/04 05:01:23;;;;;;;7.35;3.45;;;;;;;;;;5104161;28;20099;-40
2023/10/04 05:03:51;;;;;;;6.47;3.25;;;;;;;;;;5104789;28;20027;-41
2023/10/04 05:06:25;;;;;;;6.25;3.60;;;;;;;;;;5104271;28;20048;-40
2023/10/04 05:08:55;;;;;;;5.78;3.25;;;;;;;;;;5104766;28;20126;-38
2023/10/04 05:11:22;;;;;;;8.18;3.58;;;;;;;;;;5104534;28;20023;-41
2023/10/04 05:13:50;;;;;;;9.77;3.30;;;;;;;;;;5104603;28;20250;-44
2023/10/04 05:16:17;;;;;;;6.07;3.60;;;;;;;;;;5104268;28;20027;-38
2023/10/04 05:18:44;;;;;;;6.88;3.42;;;;;;;;;;5104777;28;20023;-43
2023/10/04 05:21:11;;;;;;;9.90;3.65;;;;;;;;;;5104208;28;20032;-41
2023/10/04 05:23:38;;;;;;;6.30;3.58;;;;;;;;;;5104332;28;20294;-44
2023/10/04 05:26:08;;;;;;;6.00;3.55;;;;;;;;;;5104160;28;20311;-38
2023/10/04 05:28:35;;;;;;;6.43;3.28;;;;;;;;;;5104306;28;20028;-43
2023/10/04 05:31:03;;;;;;;7.32;3.90;;;;;;;;;;5103973;28;20020;-44
2023/10/04 05:33:30;;;;;;;4.43;3.13;;;;;;;;;;5104086;28;20106;-39
2023/10/04 05:36:00;;;;;;;4.05;3.03;;;;;;;;;;5103961;28;20039;-40
2023/10/04 05:38:28;;;;;;;5.30;3.45;;;;;;;;;;5104473;28;20354;-40
2023/10/04 05:40:55;;;;;;;4.53;3.33;;;;;;;;;;5104187;28;20323;-36
2023/10/04 05:43:22;;;;;;;8.23;3.17;;;;;;;;;;5103780;28;20052;-42
2023/10/04 05:45:51;;;;;;;5.78;3.35;;;;;;;;;;5105171;28;20038;-39
2023/10/04 05:48:19;;;;;;;6.97;3.50;;;;;;;;;;5108511;28;20023;-41
2023/10/04 05:50:49;;;;;;;6.32;3.28;;;;;;;;;;5108081;28;20020;-44
2023/10/04 05:53:19;;;;;;;4.18;3.10;;;;;;;;;;5108326;28;20028;-49
2023/10/04 05:55:47;;;;;;;5.35;3.33;;;;;;;;;;5098613;28;20024;-38
2023/10/04 05:58:13;;;;;;;5.60;3.03;;;;;;;;;;5102392;28;20194;-41
2023/10/04 06:00:40;;;;;;;7.78;3.22;;;;;;;;;;5108095;28;20031;-38
2023/10/04 06:03:15;;;;;;;7.43;3.72;;;;;;;;;;5108040;28;20023;-40
2023/10/04 06:05:42;;;;;;;9.20;3.10;;;;;;;;;;5098469;28;20124;-39
2023/10/04 06:08:18;;;;;;;5.55;2.95;;;;;;;;;;5087834;28;20083;-39
2023/10/04 06:10:50;;;;;;;9.50;3.40;;;;;;;;;;5087454;28;20044;-38
2023/10/04 06:13:18;;;;;;;4.95;3.20;;;;;;;;;;5090101;28;20024;-40
2023/10/04 06:15:46;;;;;;;8.35;3.05;;;;;;;;;;5089175;28;20036;-41
2023/10/04 06:18:13;;;;;;;7.95;3.63;;;;;;;;;;5087447;28;20028;-38
2023/10/04 06:20:40;;;;;;;8.02;3.35;;;;;;;;;;5087414;28;20028;-39
2023/10/04 06:23:11;;;;;;;7.10;3.20;;;;;;;;;;5087178;28;20033;-45
2023/10/04 06:25:41;;;;;;;5.75;3.10;;;;;;;;;;5087050;28;20070;-38
2023/10/04 06:28:11;;;;;;;6.32;3.25;;;;;;;;;;5087332;28;20220;-42
2023/10/04 06:30:38;;;;;;;8.63;3.40;;;;;;;;;;5087004;28;20039;-40
2023/10/04 06:33:08;;;;;;;5.72;3.17;;;;;;;;;;5091177;28;20091;-37
2023/10/04 06:35:37;;;;;;;6.03;3.10;;;;;;;;;;5092191;28;20033;-43
2023/10/04 06:38:08;;;;;;;9.77;3.30;;;;;;;;;;5087021;28;20363;-39
2023/10/04 06:40:36;;;;;;;9.80;3.13;;;;;;;;;;5086888;28;20028;-39
2023/10/04 06:43:04;;;;;;;5.28;2.90;;;;;;;;;;5087371;28;20033;-44
2023/10/04 06:45:31;;;;;;;8.43;3.20;;;;;;;;;;5086596;28;20048;-38
2023/10/04 06:47:58;;;;;;;6.82;3.15;;;;;;;;;;5096817;28;20085;-38
2023/10/04 06:50:32;;;;;;;6.40;3.40;;;;;;;;;;5107043;28;20031;-44
2023/10/04 06:53:01;;;;;;;6.43;2.88;;;;;;;;;;5104992;28;20043;-41
2023/10/04 06:55:28;;;;;;;5.63;3.00;;;;;;;;;;5086600;28;20325;-39
2023/10/04 06:57:55;;;;;;;8.85;3.13;;;;;;;;;;5086725;28;20304;-40
2023/10/04 07:00:23;;;;;;;5.82;3.15;;;;;;;;;;5086815;28;20025;-38
2023/10/04 07:02:55;;;;;;;4.78;2.70;;;;;;;;;;5086604;28;20040;-41
2023/10/04 07:05:24;;;;;;;7.05;2.95;;;;;;;;;;5086171;28;20146;-45
2023/10/04 07:07:52;;;;;;;12.13;3.05;;;;;;;;;;5086549;28;20220;-42
2023/10/04 07:10:20;;;;;;;7.15;3.03;;;;;;;;;;5086505;28;20056;-39
2023/10/04 07:12:54;;;;;;;10.13;3.20;;;;;;;;;;5086308;28;20028;-38
2023/10/04 07:15:22;;;;;;;26.05;3.33;;;;;;;;;;5086242;28;20039;-38
2023/10/04 07:17:48;;;;;;;6.03;3.35;;;;;;;;;;5086134;28;20096;-44
2023/10/04 07:20:16;;;;;;;8.50;3.35;;;;;;;;;;5086166;28;20033;-40
2023/10/04 07:22:58;;;;;;;5.00;2.97;;;;;;;;;;5086230;28;20028;-45
2023/10/04 07:25:24;;;;;;;;;;;;;;;;;;5086331;28;20047;-40
2023/10/04 07:27:51;;;;;;;7.22;3.45;;;;;;;;;;5086209;28;19905;-39
2023/10/04 07:30:19;;;;;;;13.05;3.00;;;;;;;;;;5086139;28;20024;-46
2023/10/04 07:32:46;;;;;;;7.45;2.88;;;;;;;;;;5085936;28;20039;-39
2023/10/04 07:35:25;;;;;;;6.88;2.80;;;;;;;;;;5085932;28;20092;-47
2023/10/04 07:37:55;;;;;;;8.25;3.08;;;;;;;;;;5104238;28;20039;-39
2023/10/04 07:40:23;;;;;;;7.28;3.10;;;;;;;;;;5106109;28;20167;-38
2023/10/04 07:42:54;;;;;;;9.35;2.80;;;;;;;;;;5106192;28;20059;-38
2023/10/04 07:45:22;;;;;;;6.00;2.75;;;;;;;;;;5105786;28;20024;-39
2023/10/04 07:47:48;;;;;;;3.72;2.47;;;;;;;;;;5106186;28;20032;-46
2023/10/04 07:50:18;;;;;;;5.88;2.70;;;;;;;;;;5105903;28;20027;-38
2023/10/04 07:52:45;;;;;;;7.03;3.10;;;;;;;;;;5105813;28;20020;-39
2023/10/04 07:55:18;;;;;;;5.45;3.05;;;;;;;;;;5106009;28;20042;-39
2023/10/04 07:57:46;;;;;;;10.15;3.45;;;;;;;;;;5105821;28;20038;-40
2023/10/04 08:00:16;;;;;;;5.07;2.80;;;;;;;;;;5105593;28;20024;-42
2023/10/04 08:02:49;;;;;;;7.90;3.20;;;;;;;;;;5105456;28;20258;-39
2023/10/04 08:05:19;;;;;;;7.97;3.50;;;;;;;;;;5105493;28;20099;-39
2023/10/04 08:07:48;;;;;;;4.68;2.88;;;;;;;;;;5105574;28;20107;-39
2023/10/04 08:10:15;;;;;;;7.72;2.95;;;;;;;;;;5105140;28;20020;-39
2023/10/04 08:12:48;;;;;;;10.82;3.20;;;;;;;;;;5105572;28;20260;-47
2023/10/04 08:15:14;;;;;;;7.22;2.92;;;;;;;;;;5105308;28;20028;-43
2023/10/04 08:17:48;;;;;;;9.25;2.92;;;;;;;;;;5105477;28;20028;-42
2023/10/04 08:20:15;;;;;;;4.78;2.97;;;;;;;;;;5105473;28;20140;-40
2023/10/04 08:22:42;;;;;;;6.32;2.95;;;;;;;;;;5105341;28;20110;-38
2023/10/04 08:25:10;;;;;;;4.60;2.85;;;;;;;;;;5105171;28;20083;-46
2023/10/04 08:27:37;;;;;;;7.68;2.78;;;;;;;;;;5105401;28;20065;-39
2023/10/04 08:30:08;;;;;;;6.25;3.10;;;;;;;;;;5105136;28;20031;-38
2023/10/04 08:32:35;;;;;;;6.57;2.90;;;;;;;;;;5105220;28;20039;-38
2023/10/04 08:35:02;;;;;;;6.80;3.10;;;;;;;;;;5104948;28;20016;-39
2023/10/04 08:37:29;;;;;;;7.28;3.25;;;;;;;;;;5104973;28;20028;-41
2023/10/04 08:39:56;;;;;;;5.70;3.05;;;;;;;;;;5105049;28;20024;-45
2023/10/04 08:42:24;;;;;;;7.32;2.92;;;;;;;;;;5104842;28;20023;-39
2023/10/04 08:44:51;;;;;;;6.82;3.28;;;;;;;;;;5104756;28;20324;-45
2023/10/04 08:47:17;;;;;;;6.38;2.85;;;;;;;;;;5104776;28;20049;-41
2023/10/04 08:49:50;;;;;;;4.50;2.95;;;;;;;;;;5104706;28;20339;-45
2023/10/04 08:52:21;;;;;;;8.18;3.40;;;;;;;;;;5103045;28;20216;-38
2023/10/04 08:54:51;;;;;;;9.25;3.65;;;;;;;;;;5103487;28;20107;-38
2023/10/04 08:57:21;;;;;;;6.38;3.17;;;;;;;;;;5084324;28;20027;-42
2023/10/04 08:59:51;;;;;;;5.25;3.35;;;;;;;;;;5084299;28;20024;-37
2023/10/04 09:02:20;;;;;;;8.80;3.40;;;;;;;;;;5084096;28;20020;-41
2023/10/04 09:04:47;;;;;;;7.28;3.50;;;;;;;;;;5084224;28;20046;-39
2023/10/04 09:07:14;;;;;;;6.20;3.45;;;;;;;;;;5084256;28;20024;-39
2023/10/04 09:09:41;;;;;;;5.18;2.95;;;;;;;;;;5084080;28;20051;-40
2023/10/04 09:12:07;;;;;;;7.93;3.20;;;;;;;;;;5084306;28;20100;-48
2023/10/04 09:14:36;;;;;;;7.72;3.45;;;;;;;;;;5084567;28;20050;-54
2023/10/04 09:17:07;;;;;;;7.20;3.33;;;;;;;;;;5083995;28;20040;-41
2023/10/04 09:19:34;;;;;;;5.00;3.15;;;;;;;;;;5084299;28;20040;-48
2023/10/04 09:22:09;;;;;;;6.82;3.28;;;;;;;;;;5096010;28;20051;-44
2023/10/04 09:24:55;;;;;;;7.35;3.30;;;;;;;;;;5104257;28;20074;-40
2023/10/04 09:27:22;;;;;;;5.78;3.55;;;;;;;;;;5104221;28;20058;-42
2023/10/04 09:29:53;;;;;;;7.78;3.47;;;;;;;;;;5104095;28;20062;-47
2023/10/04 09:32:38;;;;;;;5.97;3.27;;;;;;;;;;5104161;28;20065;-43
2023/10/04 09:35:05;;;;;;;8.60;3.80;;;;;;;;;;5104046;28;20032;-44
2023/10/04 09:37:32;;;;;;;8.43;3.58;;;;;;;;;;5104240;28;20059;-41
2023/10/04 09:40:08;;;;;;;7.30;3.30;;;;;;;;;;5104088;28;20042;-43
2023/10/04 09:42:53;;;;;;;7.05;3.50;;;;;;;;;;5104094;28;20040;-42
2023/10/04 09:45:20;;;;;;;10.40;3.63;;;;;;;;;;5103791;28;20219;-41
2023/10/04 09:47:50;;;;;;;7.32;3.70;;;;;;;;;;5092602;28;20046;-39
2023/10/04 09:50:24;;;;;;;6.75;4.10;;;;;;;;;;5097929;28;20031;-40
2023/10/04 09:52:51;;;;;;;5.28;3.72;;;;;;;;;;5103950;28;20048;-41
2023/10/04 09:55:20;;;;;;;9.90;3.80;;;;;;;;;;5084299;28;20031;-48
2023/10/04 09:57:48;;;;;;;4.65;3.58;;;;;;;;;;5084009;28;20051;-42
2023/10/04 10:00:18;;;;;;;10.07;4.10;;;;;;;;;;5083755;28;20232;-49
2023/10/04 10:02:49;;;;;;;7.35;3.53;;;;;;;;;;5087029;28;20229;-47
2023/10/04 10:05:29;;;;;;;8.20;3.80;;;;;;;;;;5093570;28;20075;-43
2023/10/04 10:27:28;;;;;;;13.98;4.47;;;;;;;;;;5087970;28;20097;-49
2023/10/04 10:30:16;;;;;;;9.43;4.45;;;;;;;;;;5083610;28;20078;-40
2023/10/04 10:32:54;;;;;;;12.60;4.57;;;;;;;;;;5088960;28;20062;-38
2023/10/04 10:35:40;;;;;;;6.38;4.53;;;;;;;;;;5098252;28;20028;-44
2023/10/04 10:38:25;;;;;;;9.88;4.60;;;;;;;;;;5099850;28;20304;-46
2023/10/04 10:50:53;;;;;;;7.80;4.57;;;;;;;;;;5089834;28;20399;-49
2023/10/04 10:53:20;;;;;;;14.65;5.65;;;;;;;;;;5092751;28;20294;-41
2023/10/04 10:55:47;;;;;;;11.88;5.40;;;;;;;;;;5097355;28;20134;-42
2023/10/04 10:58:13;;;;;;;7.40;4.30;;;;;;;;;;5093773;28;20056;-50
2023/10/04 11:00:41;;;;;;;44.35;7.15;;;;;;;;;;5089467;28;20078;-42
2023/10/04 11:03:13;;;;;;;13.57;4.55;;;;;;;;;;5095792;28;20041;-41
2023/10/04 11:05:41;;;;;;;16.92;4.30;;;;;;;;;;5093960;28;20051;-42
2023/10/04 11:08:08;;;;;;;12.00;4.75;;;;;;;;;;5088431;28;20032;-37
2023/10/04 11:10:36;;;;;;;12.40;4.47;;;;;;;;;;5086833;28;20044;-40
2023/10/04 11:13:07;;;;;;;7.55;4.07;;;;;;;;;;5085807;28;20020;-47
2023/10/04 11:15:36;;;;;;;8.90;4.55;;;;;;;;;;5085069;28;20088;-53
2023/10/04 11:18:05;;;;;;;10.43;4.63;;;;;;;;;;5084861;28;20328;-39
2023/10/04 11:20:36;;;;;;;8.82;3.83;;;;;;;;;;5084967;28;20036;-39
2023/10/04 11:23:02;;;;;;;7.97;4.00;;;;;;;;;;5084910;28;20020;-43
2023/10/04 11:25:29;;;;;;;7.88;3.80;;;;;;;;;;5093571;28;20197;-40
2023/10/04 11:27:56;;;;;;;7.65;4.05;;;;;;;;;;5096444;28;20025;-49
2023/10/04 11:30:27;;;;;;;8.77;4.18;;;;;;;;;;5095503;28;20018;-43
2023/10/04 11:32:53;;;;;;;7.32;3.83;;;;;;;;;;5095128;28;20048;-40
2023/10/04 11:35:20;;;;;;;9.27;4.20;;;;;;;;;;5095674;28;20205;-41
2023/10/04 11:37:49;;;;;;;10.05;4.65;;;;;;;;;;5096077;28;20090;-50
2023/10/04 11:40:19;;;;;;;9.18;5.03;;;;;;;;;;5104846;28;20347;-50
2023/10/04 11:42:46;;;;;;;9.80;4.95;;;;;;;;;;5104245;28;20055;-50
2023/10/04 11:45:17;;;;;;;9.45;5.10;;;;;;;;;;5105160;28;20035;-43
2023/10/04 11:47:45;;;;;;;8.65;5.03;;;;;;;;;;5106087;28;20032;-44
2023/10/04 11:50:13;;;;;;;7.85;5.07;;;;;;;;;;5105879;28;20373;-48
2023/10/04 11:52:41;;;;;;;8.85;4.97;;;;;;;;;;5105928;28;20032;-48
2023/10/04 11:55:24;;;;;;;8.35;4.97;;;;;;;;;;5105590;28;20289;-34
2023/10/04 11:57:51;;;;;;;9.32;5.10;;;;;;;;;;5105793;28;20051;-36
2023/10/04 12:00:18;;;;;;;10.00;5.00;;;;;;;;;;5105048;28;20035;-35
2023/10/04 12:02:45;;;;;;;10.57;4.90;;;;;;;;;;5102955;28;20400;-35
2023/10/04 12:05:12;;;;;;;9.43;5.10;;;;;;;;;;5103822;28;20044;-43
2023/10/04 12:07:39;;;;;;;10.82;4.80;;;;;;;;;;5105485;28;20024;-38
2023/10/04 12:10:09;;;;;;;10.88;4.60;;;;;;;;;;5105247;28;20311;-45
2023/10/04 12:12:37;;;;;;;10.07;4.70;;;;;;;;;;5103784;28;20024;-41
2023/10/04 12:15:07;;;;;;;14.25;5.10;;;;;;;;;;5103577;28;20020;-38
2023/10/04 12:17:34;;;;;;;9.52;5.13;;;;;;;;;;5103962;28;20028;-45
2023/10/04 12:20:07;;;;;;;9.25;4.85;;;;;;;;;;5103595;28;20243;-38
2023/10/04 12:22:34;;;;;;;8.75;5.50;;;;;;;;;;5103511;28;20065;-41
2023/10/04 12:25:01;;;;;;;13.77;5.30;;;;;;;;;;5103436;28;20016;-43
2023/10/04 12:27:28;;;;;;;8.15;5.00;;;;;;;;;;5104996;28;20212;-44
2023/10/04 12:29:56;;;;;;;8.77;5.10;;;;;;;;;;5104835;28;20065;-39
2023/10/04 12:32:23;;;;;;;14.85;5.88;;;;;;;;;;5104728;28;20265;-38
2023/10/04 12:34:50;;;;;;;7.22;5.35;;;;;;;;;;5104918;28;20024;-41
2023/10/04 12:37:16;;;;;;;8.63;5.05;;;;;;;;;;5104987;28;20024;-35
2023/10/04 12:39:43;;;;;;;6.15;5.00;;;;;;;;;;5105130;28;20031;-37
2023/10/04 12:42:11;;;;;;;7.63;5.45;;;;;;;;;;5104710;28;20095;-38
2023/10/04 12:44:37;;;;;;;6.00;5.00;;;;;;;;;;5104853;28;20209;-46
2023/10/04 12:47:05;;;;;;;8.13;4.97;;;;;;;;;;5104721;28;20016;-47
2023/10/04 12:49:32;;;;;;;10.18;6.10;;;;;;;;;;5105039;28;20032;-37
2023/10/04 12:51:58;;;;;;;6.22;5.28;;;;;;;;;;5104883;28;20028;-44
2023/10/04 12:54:25;;;;;;;6.93;5.78;;;;;;;;;;5105108;28;20040;-45
2023/10/04 12:56:53;;;;;;;8.25;6.32;;;;;;;;;;5104450;28;20228;-37
2023/10/04 12:59:20;;;;;;;7.15;6.45;;;;;;;;;;5105067;28;20032;-43
2023/10/04 13:01:47;;;;;;;8.65;6.93;;;;;;;;;;5104519;28;20024;-40
2023/10/04 13:04:13;;;;;;;8.43;6.35;;;;;;;;;;5104847;28;20108;-45
2023/10/04 13:06:40;;;;;;;6.75;5.95;;;;;;;;;;5104244;28;20063;-44
2023/10/04 13:09:18;;;;;;;9.60;6.15;;;;;;;;;;5105179;28;20040;-43
2023/10/04 13:11:46;;;;;;;5.85;5.25;;;;;;;;;;5104593;28;20020;-42
2023/10/04 13:14:13;;;;;;;7.18;5.95;;;;;;;;;;5104847;28;20239;-44
2023/10/04 13:16:40;;;;;;;8.65;5.10;;;;;;;;;;5104258;28;20032;-44
2023/10/04 13:19:06;;;;;;;8.98;5.40;;;;;;;;;;5104654;28;20200;-45
2023/10/04 13:21:34;;;;;;;6.65;5.13;;;;;;;;;;5104274;28;20377;-46
2023/10/04 13:24:01;;;;;;;8.80;5.47;;;;;;;;;;5104523;28;20324;-41
2023/10/04 13:26:28;;;;;;;6.53;4.63;;;;;;;;;;5103941;28;20039;-45
2023/10/04 13:28:54;;;;;;;6.53;5.28;;;;;;;;;;5104490;28;20126;-41
2023/10/04 13:31:22;;;;;;;7.63;4.85;;;;;;;;;;5104165;28;20028;-39
2023/10/04 13:33:48;;;;;;;7.78;4.90;;;;;;;;;;5104362;28;20256;-44
2023/10/04 13:36:15;;;;;;;5.22;4.78;;;;;;;;;;5104057;28;20032;-43
2023/10/04 13:38:42;;;;;;;5.68;4.97;;;;;;;;;;5104449;28;20221;-44
2023/10/04 13:41:13;;;;;;;5.22;4.70;;;;;;;;;;5103877;28;20020;-39
2023/10/04 13:43:41;;;;;;;7.03;4.35;;;;;;;;;;5104390;28;20252;-43
2023/10/04 13:46:08;;;;;;;7.60;4.93;;;;;;;;;;5103819;28;20032;-41
2023/10/04 13:48:38;;;;;;;5.82;4.38;;;;;;;;;;5103854;28;20031;-44
2023/10/04 13:51:07;;;;;;;9.77;4.22;;;;;;;;;;5103929;28;20235;-39
2023/10/04 13:53:35;;;;;;;4.80;4.38;;;;;;;;;;5104302;28;20292;-45
2023/10/04 13:56:05;;;;;;;6.53;4.45;;;;;;;;;;5103770;28;20020;-45
2023/10/04 13:58:32;;;;;;;7.25;5.10;;;;;;;;;;5104075;28;20040;-41
2023/10/04 14:01:03;;;;;;;7.32;4.80;;;;;;;;;;5103860;28;20020;-45
2023/10/04 14:03:33;;;;;;;6.43;4.82;;;;;;;;;;5104258;28;20069;-38
2023/10/04 14:06:06;;;;;;;10.90;5.32;;;;;;;;;;5103560;28;20050;-40
2023/10/04 14:08:33;;;;;;;7.95;4.70;;;;;;;;;;5107977;28;20194;-40
2023/10/04 14:11:00;;;;;;;6.35;4.50;;;;;;;;;;5107826;28;20031;-42
2023/10/04 14:13:27;;;;;;;5.75;5.15;;;;;;;;;;5108178;28;20312;-42
2023/10/04 14:15:55;;;;;;;5.43;4.60;;;;;;;;;;5107596;28;20028;-42
2023/10/04 14:18:25;;;;;;;5.97;4.60;;;;;;;;;;5107877;28;20085;-40
2023/10/04 14:20:56;;;;;;;8.38;5.15;;;;;;;;;;5107600;28;20027;-38
2023/10/04 14:23:25;;;;;;;7.55;4.72;;;;;;;;;;5107891;28;20384;-43
2023/10/04 14:25:56;;;;;;;5.40;4.45;;;;;;;;;;5107450;28;20224;-46
2023/10/04 14:28:25;;;;;;;6.25;4.80;;;;;;;;;;5107709;28;20028;-38
2023/10/04 14:30:51;;;;;;;5.88;5.20;;;;;;;;;;5107490;28;20485;-38
2023/10/04 14:33:19;;;;;;;9.07;5.63;;;;;;;;;;5107427;28;20034;-36
2023/10/04 14:35:47;;;;;;;6.55;5.55;;;;;;;;;;5107357;28;20020;-46
2023/10/04 14:38:15;;;;;;;7.40;4.93;;;;;;;;;;5107579;28;20036;-50
2023/10/04 14:40:45;;;;;;;7.72;5.55;;;;;;;;;;5107217;28;20077;-39
2023/10/04 14:43:12;;;;;;;5.65;4.88;;;;;;;;;;5104839;28;20434;-38
2023/10/04 14:45:39;;;;;;;5.63;4.03;;;;;;;;;;5092179;28;20029;-40
2023/10/04 14:48:06;;;;;;;12.90;4.63;;;;;;;;;;5099132;28;20052;-43
2023/10/04 14:50:33;;;;;;;5.88;4.90;;;;;;;;;;5095469;28;20312;-38
2023/10/04 14:53:01;;;;;;;5.85;4.47;;;;;;;;;;5087161;28;20270;-39
2023/10/04 14:55:28;;;;;;;11.60;4.88;;;;;;;;;;5086590;28;20078;-39
2023/10/04 14:57:54;;;;;;;6.75;4.60;;;;;;;;;;5086952;28;20033;-43
2023/10/04 15:00:24;;;;;;;7.05;4.90;;;;;;;;;;5086758;28;20027;-37
2023/10/04 15:02:53;;;;;;;6.05;4.95;;;;;;;;;;5086564;28;20036;-44
2023/10/04 15:05:21;;;;;;;6.82;4.45;;;;;;;;;;5086183;28;20257;-38
2023/10/04 15:07:50;;;;;;;8.27;4.80;;;;;;;;;;5086363;28;20028;-42
2023/10/04 15:10:18;;;;;;;6.00;4.50;;;;;;;;;;5084595;28;20221;-36
2023/10/04 15:12:47;;;;;;;8.15;6.35;;;;;;;;;;5084774;28;20228;-41
2023/10/04 15:15:14;;;;;;;8.55;5.55;;;;;;;;;;5084748;28;20036;-40
2023/10/04 15:17:41;;;;;;;7.00;5.40;;;;;;;;;;5083893;28;20039;-44
2023/10/04 15:20:08;;;;;;;6.38;5.78;;;;;;;;;;5083739;28;20021;-45
2023/10/04 15:22:42;;;;;;;6.22;5.63;;;;;;;;;;5084847;28;20073;-38
2023/10/04 15:25:12;;;;;;;9.10;5.80;;;;;;;;;;5085740;28;20020;-39